EBAW/ANR METAR and TAF weather

Enter ICAO airport designator
Station Type Date Time Source
EBAW METAR 2018/10/22 15:50 UTC NOAA

EBAW 221550Z 35010KT 320V020 9999 SCT042 14/06 Q1034 NOSIG


Station Type Date Time Source
EBAW Decoded METAR 2018/10/22 15:50 UTC NOAA

Antwerpen / Deurne, Belgium (EBAW) 51-12N 004-28E 14M
Oct 22, 2018 - 11:50 AM EDT / 2018.10.22 1550 UTC
Wind: from the N (350 degrees) at 12 MPH (10 KT) (direction variable):0
Visibility: greater than 7 mile(s):0
Sky conditions: partly cloudy
Temperature: 57 F (14 C)
Dew Point: 42 F (6 C)
Relative Humidity: 58%
Pressure (altimeter): 30.53 in. Hg (1034 hPa)
ob: EBAW 221550Z 35010KT 320V020 9999 SCT042 14/06 Q1034 NOSIG
cycle: 16

Station Type Date Time Source
EBAW TAF 2018/10/03 03:27 UTC NOAA

TAF TAF EBAW 030220Z 0303/0315 28006KT 9999 FEW026


Example: see airport list